Terminal Aerodrome Forecast
Issued by NWS Greer, SC

Home | Current Version | Previous Version | Text Only | Print | Product List | Glossary On
Versions: 1 2 3 4 5 6 7 8 9 10 11 12 13 14 15 16 17 18 19 20 21 22 23 24 25 26 27 28 29 30 31 32 33 34 35 36 37 38 39 40 41 42 43 44
000
FTUS42 KGSP 050530
TAFAVL
TAF
KAVL 050530Z 0506/0606 20008G16KT P6SM VCSH SCT020 BKN040
      TEMPO 0506/0509 5SM -SHRA BR BKN020 OVC040
     FM050900 33009KT 6SM -RA BR OVC015
     FM051100 35011G19KT 4SM -RA BR OVC008
     FM051700 36012G22KT 3SM -RA BR OVC008 PROB30 0520/0524 4SM
      -FZRA BR OVC015
     FM060000 35010G20KT 4SM BR OVC015
     FM060300 35010G20KT P6SM BKN025=

USA.gov is the U.S. government's official web portal to all federal, state and local government web resources and services.